sensor_id;sensor_type;location;lat;lon;timestamp;P1;durP1;ratioP1;P2;durP2;ratioP2
40286;SDS011;25998;46.604;13.610;2023-04-24T00:01:34;7.25;;;6.00;;
40286;SDS011;25998;46.604;13.610;2023-04-24T00:04:46;7.43;;;5.68;;
40286;SDS011;25998;46.604;13.610;2023-04-24T00:07:59;6.50;;;5.90;;
40286;SDS011;25998;46.604;13.610;2023-04-24T00:11:10;7.65;;;6.53;;
40286;SDS011;25998;46.604;13.610;2023-04-24T00:14:21;6.43;;;5.75;;
40286;SDS011;25998;46.604;13.610;2023-04-24T00:17:32;6.70;;;6.00;;
40286;SDS011;25998;46.604;13.610;2023-04-24T00:20:42;6.63;;;5.93;;
40286;SDS011;25998;46.604;13.610;2023-04-24T00:23:54;6.57;;;5.85;;
40286;SDS011;25998;46.604;13.610;2023-04-24T00:27:04;8.27;;;6.18;;
40286;SDS011;25998;46.604;13.610;2023-04-24T00:30:15;6.97;;;5.50;;
40286;SDS011;25998;46.604;13.610;2023-04-24T00:33:26;6.68;;;5.82;;
40286;SDS011;25998;46.604;13.610;2023-04-24T00:36:37;8.20;;;6.43;;
40286;SDS011;25998;46.604;13.610;2023-04-24T00:39:48;8.88;;;6.40;;
40286;SDS011;25998;46.604;13.610;2023-04-24T00:42:59;7.65;;;6.28;;
40286;SDS011;25998;46.604;13.610;2023-04-24T00:46:10;7.47;;;6.07;;
40286;SDS011;25998;46.604;13.610;2023-04-24T00:49:21;6.70;;;6.00;;
40286;SDS011;25998;46.604;13.610;2023-04-24T00:52:32;7.18;;;6.43;;
40286;SDS011;25998;46.604;13.610;2023-04-24T00:55:43;6.95;;;5.95;;
40286;SDS011;25998;46.604;13.610;2023-04-24T00:58:55;7.55;;;5.50;;
40286;SDS011;25998;46.604;13.610;2023-04-24T01:02:07;6.25;;;5.53;;
40286;SDS011;25998;46.604;13.610;2023-04-24T01:05:21;7.50;;;5.68;;
40286;SDS011;25998;46.604;13.610;2023-04-24T01:08:31;5.60;;;5.10;;
40286;SDS011;25998;46.604;13.610;2023-04-24T01:11:45;5.40;;;4.90;;
40286;SDS011;25998;46.604;13.610;2023-04-24T01:14:55;5.20;;;4.60;;
40286;SDS011;25998;46.604;13.610;2023-04-24T01:18:06;4.90;;;4.35;;
40286;SDS011;25998;46.604;13.610;2023-04-24T01:21:17;6.47;;;4.50;;
40286;SDS011;25998;46.604;13.610;2023-04-24T01:24:31;5.07;;;4.57;;
40286;SDS011;25998;46.604;13.610;2023-04-24T01:27:42;5.30;;;4.63;;
40286;SDS011;25998;46.604;13.610;2023-04-24T01:30:53;6.95;;;5.05;;
40286;SDS011;25998;46.604;13.610;2023-04-24T01:34:04;6.13;;;5.03;;
40286;SDS011;25998;46.604;13.610;2023-04-24T01:37:16;5.90;;;4.90;;
40286;SDS011;25998;46.604;13.610;2023-04-24T01:40:27;4.65;;;4.22;;
40286;SDS011;25998;46.604;13.610;2023-04-24T01:43:38;4.93;;;3.92;;
40286;SDS011;25998;46.604;13.610;2023-04-24T01:46:49;5.38;;;4.43;;
40286;SDS011;25998;46.604;13.610;2023-04-24T01:50:00;5.43;;;4.50;;
40286;SDS011;25998;46.604;13.610;2023-04-24T01:53:11;5.70;;;4.63;;
40286;SDS011;25998;46.604;13.610;2023-04-24T01:56:22;5.05;;;4.63;;
40286;SDS011;25998;46.604;13.610;2023-04-24T01:59:33;4.65;;;4.18;;
40286;SDS011;25998;46.604;13.610;2023-04-24T02:02:44;5.70;;;4.65;;
40286;SDS011;25998;46.604;13.610;2023-04-24T02:05:55;5.95;;;4.50;;
40286;SDS011;25998;46.604;13.610;2023-04-24T02:09:06;5.68;;;4.40;;
40286;SDS011;25998;46.604;13.610;2023-04-24T02:12:18;6.07;;;3.95;;
40286;SDS011;25998;46.604;13.610;2023-04-24T02:15:28;4.95;;;4.10;;
40286;SDS011;25998;46.604;13.610;2023-04-24T02:18:39;4.95;;;4.45;;
40286;SDS011;25998;46.604;13.610;2023-04-24T02:21:50;5.50;;;4.30;;
40286;SDS011;25998;46.604;13.610;2023-04-24T02:25:01;4.88;;;4.38;;
40286;SDS011;25998;46.604;13.610;2023-04-24T02:28:12;7.03;;;4.88;;
40286;SDS011;25998;46.604;13.610;2023-04-24T02:31:23;6.80;;;4.97;;
40286;SDS011;25998;46.604;13.610;2023-04-24T02:34:35;5.50;;;4.63;;
40286;SDS011;25998;46.604;13.610;2023-04-24T02:37:46;5.35;;;4.65;;
40286;SDS011;25998;46.604;13.610;2023-04-24T02:40:57;6.47;;;4.85;;
40286;SDS011;25998;46.604;13.610;2023-04-24T02:44:08;6.05;;;5.13;;
40286;SDS011;25998;46.604;13.610;2023-04-24T02:47:19;4.97;;;4.47;;
40286;SDS011;25998;46.604;13.610;2023-04-24T02:50:29;5.65;;;4.63;;
40286;SDS011;25998;46.604;13.610;2023-04-24T02:53:41;5.88;;;5.03;;
40286;SDS011;25998;46.604;13.610;2023-04-24T02:56:52;5.38;;;4.85;;
40286;SDS011;25998;46.604;13.610;2023-04-24T03:00:03;5.20;;;4.13;;
40286;SDS011;25998;46.604;13.610;2023-04-24T03:03:17;6.03;;;4.63;;
40286;SDS011;25998;46.604;13.610;2023-04-24T03:06:28;6.93;;;4.82;;
40286;SDS011;25998;46.604;13.610;2023-04-24T03:09:38;4.68;;;4.18;;
40286;SDS011;25998;46.604;13.610;2023-04-24T03:12:49;5.65;;;4.38;;
40286;SDS011;25998;46.604;13.610;2023-04-24T03:16:00;4.93;;;4.43;;
40286;SDS011;25998;46.604;13.610;2023-04-24T03:19:11;5.20;;;4.70;;
40286;SDS011;25998;46.604;13.610;2023-04-24T03:22:22;6.60;;;4.95;;
40286;SDS011;25998;46.604;13.610;2023-04-24T03:25:33;6.35;;;5.75;;
40286;SDS011;25998;46.604;13.610;2023-04-24T03:28:44;5.95;;;4.63;;
40286;SDS011;25998;46.604;13.610;2023-04-24T03:31:55;5.22;;;4.72;;
40286;SDS011;25998;46.604;13.610;2023-04-24T03:35:06;7.18;;;5.30;;
40286;SDS011;25998;46.604;13.610;2023-04-24T03:38:18;5.82;;;4.75;;
40286;SDS011;25998;46.604;13.610;2023-04-24T03:41:29;4.95;;;4.45;;
40286;SDS011;25998;46.604;13.610;2023-04-24T03:44:40;6.50;;;5.05;;
40286;SDS011;25998;46.604;13.610;2023-04-24T03:47:51;6.55;;;5.05;;
40286;SDS011;25998;46.604;13.610;2023-04-24T03:51:02;6.03;;;4.70;;
40286;SDS011;25998;46.604;13.610;2023-04-24T03:54:13;8.55;;;5.15;;
40286;SDS011;25998;46.604;13.610;2023-04-24T03:57:23;6.10;;;4.70;;
40286;SDS011;25998;46.604;13.610;2023-04-24T04:00:35;5.13;;;4.60;;
40286;SDS011;25998;46.604;13.610;2023-04-24T04:03:47;5.50;;;4.45;;
40286;SDS011;25998;46.604;13.610;2023-04-24T04:06:58;6.18;;;4.47;;
40286;SDS011;25998;46.604;13.610;2023-04-24T04:10:11;7.20;;;5.03;;
40286;SDS011;25998;46.604;13.610;2023-04-24T04:13:22;6.05;;;4.57;;
40286;SDS011;25998;46.604;13.610;2023-04-24T04:16:33;5.47;;;4.78;;
40286;SDS011;25998;46.604;13.610;2023-04-24T04:19:43;6.43;;;4.72;;
40286;SDS011;25998;46.604;13.610;2023-04-24T04:22:54;5.43;;;4.55;;
40286;SDS011;25998;46.604;13.610;2023-04-24T04:26:05;5.57;;;4.97;;
40286;SDS011;25998;46.604;13.610;2023-04-24T04:29:17;6.22;;;5.63;;
40286;SDS011;25998;46.604;13.610;2023-04-24T04:32:32;6.40;;;5.80;;
40286;SDS011;25998;46.604;13.610;2023-04-24T04:35:44;7.65;;;5.80;;
40286;SDS011;25998;46.604;13.610;2023-04-24T04:38:58;7.78;;;6.00;;
40286;SDS011;25998;46.604;13.610;2023-04-24T04:42:09;10.00;;;5.50;;
40286;SDS011;25998;46.604;13.610;2023-04-24T04:45:20;7.32;;;5.40;;
40286;SDS011;25998;46.604;13.610;2023-04-24T04:48:31;6.40;;;5.25;;
40286;SDS011;25998;46.604;13.610;2023-04-24T04:51:42;6.68;;;5.55;;
40286;SDS011;25998;46.604;13.610;2023-04-24T04:54:53;7.47;;;6.28;;
40286;SDS011;25998;46.604;13.610;2023-04-24T04:58:04;7.20;;;5.78;;
40286;SDS011;25998;46.604;13.610;2023-04-24T05:01:15;8.05;;;5.85;;
40286;SDS011;25998;46.604;13.610;2023-04-24T05:04:26;6.63;;;5.57;;
40286;SDS011;25998;46.604;13.610;2023-04-24T05:07:37;7.00;;;5.50;;
40286;SDS011;25998;46.604;13.610;2023-04-24T05:10:47;5.43;;;4.90;;
40286;SDS011;25998;46.604;13.610;2023-04-24T05:13:58;8.82;;;5.25;;
40286;SDS011;25998;46.604;13.610;2023-04-24T05:17:09;6.72;;;5.00;;
40286;SDS011;25998;46.604;13.610;2023-04-24T05:20:20;7.45;;;5.55;;
40286;SDS011;25998;46.604;13.610;2023-04-24T05:23:31;8.18;;;5.95;;
40286;SDS011;25998;46.604;13.610;2023-04-24T05:26:42;7.80;;;5.30;;
40286;SDS011;25998;46.604;13.610;2023-04-24T05:29:53;7.88;;;5.35;;
40286;SDS011;25998;46.604;13.610;2023-04-24T05:33:03;7.93;;;5.80;;
40286;SDS011;25998;46.604;13.610;2023-04-24T05:36:14;10.45;;;5.63;;
40286;SDS011;25998;46.604;13.610;2023-04-24T05:39:25;10.05;;;5.43;;
40286;SDS011;25998;46.604;13.610;2023-04-24T05:42:36;11.65;;;6.63;;
40286;SDS011;25998;46.604;13.610;2023-04-24T05:45:47;12.05;;;5.30;;
40286;SDS011;25998;46.604;13.610;2023-04-24T05:48:58;9.50;;;7.15;;
40286;SDS011;25998;46.604;13.610;2023-04-24T05:52:09;12.38;;;6.18;;
40286;SDS011;25998;46.604;13.610;2023-04-24T05:55:20;13.52;;;5.85;;
40286;SDS011;25998;46.604;13.610;2023-04-24T05:58:30;14.63;;;5.15;;
40286;SDS011;25998;46.604;13.610;2023-04-24T06:01:41;15.30;;;5.90;;
40286;SDS011;25998;46.604;13.610;2023-04-24T06:04:52;8.70;;;5.18;;
40286;SDS011;25998;46.604;13.610;2023-04-24T06:08:03;12.43;;;5.70;;
40286;SDS011;25998;46.604;13.610;2023-04-24T06:11:14;7.15;;;5.45;;
40286;SDS011;25998;46.604;13.610;2023-04-24T06:14:25;8.00;;;4.72;;
40286;SDS011;25998;46.604;13.610;2023-04-24T06:17:36;17.27;;;6.18;;
40286;SDS011;25998;46.604;13.610;2023-04-24T06:20:46;11.48;;;6.30;;
40286;SDS011;25998;46.604;13.610;2023-04-24T06:23:57;12.73;;;6.10;;
40286;SDS011;25998;46.604;13.610;2023-04-24T06:27:08;14.07;;;5.80;;
40286;SDS011;25998;46.604;13.610;2023-04-24T06:30:19;19.00;;;6.35;;
40286;SDS011;25998;46.604;13.610;2023-04-24T06:33:30;17.67;;;6.88;;
40286;SDS011;25998;46.604;13.610;2023-04-24T06:36:41;20.45;;;6.72;;
40286;SDS011;25998;46.604;13.610;2023-04-24T06:39:52;13.18;;;5.88;;
40286;SDS011;25998;46.604;13.610;2023-04-24T06:43:03;11.48;;;5.50;;
40286;SDS011;25998;46.604;13.610;2023-04-24T06:46:13;17.75;;;6.47;;
40286;SDS011;25998;46.604;13.610;2023-04-24T06:49:24;15.32;;;6.53;;
40286;SDS011;25998;46.604;13.610;2023-04-24T06:52:36;11.48;;;6.22;;
40286;SDS011;25998;46.604;13.610;2023-04-24T06:55:46;22.83;;;15.70;;
40286;SDS011;25998;46.604;13.610;2023-04-24T06:58:58;23.85;;;17.30;;
40286;SDS011;25998;46.604;13.610;2023-04-24T07:02:09;19.48;;;13.32;;
40286;SDS011;25998;46.604;13.610;2023-04-24T07:05:20;18.92;;;15.90;;
40286;SDS011;25998;46.604;13.610;2023-04-24T07:08:31;17.38;;;14.30;;
40286;SDS011;25998;46.604;13.610;2023-04-24T07:11:43;14.52;;;12.88;;
40286;SDS011;25998;46.604;13.610;2023-04-24T07:14:54;15.30;;;11.70;;
40286;SDS011;25998;46.604;13.610;2023-04-24T07:18:05;16.48;;;12.93;;
40286;SDS011;25998;46.604;13.610;2023-04-24T07:21:16;13.65;;;9.82;;
40286;SDS011;25998;46.604;13.610;2023-04-24T07:24:27;10.98;;;8.98;;
40286;SDS011;25998;46.604;13.610;2023-04-24T07:27:38;12.10;;;9.45;;
40286;SDS011;25998;46.604;13.610;2023-04-24T07:30:48;15.18;;;9.32;;
40286;SDS011;25998;46.604;13.610;2023-04-24T07:33:59;8.77;;;7.03;;
40286;SDS011;25998;46.604;13.610;2023-04-24T07:37:10;8.32;;;7.00;;
40286;SDS011;25998;46.604;13.610;2023-04-24T07:40:21;5.28;;;3.08;;
40286;SDS011;25998;46.604;13.610;2023-04-24T07:43:33;4.20;;;1.58;;
40286;SDS011;25998;46.604;13.610;2023-04-24T07:46:44;5.32;;;1.70;;
40286;SDS011;25998;46.604;13.610;2023-04-24T07:49:55;2.25;;;1.33;;
40286;SDS011;25998;46.604;13.610;2023-04-24T07:53:06;5.07;;;1.70;;
40286;SDS011;25998;46.604;13.610;2023-04-24T07:56:17;4.55;;;1.20;;
40286;SDS011;25998;46.604;13.610;2023-04-24T07:59:27;3.00;;;1.08;;
40286;SDS011;25998;46.604;13.610;2023-04-24T08:02:38;2.97;;;1.30;;
40286;SDS011;25998;46.604;13.610;2023-04-24T08:05:49;4.53;;;1.10;;
40286;SDS011;25998;46.604;13.610;2023-04-24T08:09:01;4.78;;;1.17;;
40286;SDS011;25998;46.604;13.610;2023-04-24T08:12:11;4.45;;;4.05;;
40286;SDS011;25998;46.604;13.610;2023-04-24T08:15:22;8.48;;;4.30;;
40286;SDS011;25998;46.604;13.610;2023-04-24T08:18:33;6.15;;;4.78;;
40286;SDS011;25998;46.604;13.610;2023-04-24T08:21:45;9.55;;;4.53;;
40286;SDS011;25998;46.604;13.610;2023-04-24T08:24:56;4.43;;;3.85;;
40286;SDS011;25998;46.604;13.610;2023-04-24T08:28:09;3.08;;;2.63;;
40286;SDS011;25998;46.604;13.610;2023-04-24T08:31:20;4.88;;;2.65;;
40286;SDS011;25998;46.604;13.610;2023-04-24T08:34:32;2.72;;;1.80;;
40286;SDS011;25998;46.604;13.610;2023-04-24T08:37:43;2.75;;;1.30;;
40286;SDS011;25998;46.604;13.610;2023-04-24T08:40:54;2.63;;;1.40;;
40286;SDS011;25998;46.604;13.610;2023-04-24T08:44:09;2.50;;;1.20;;
40286;SDS011;25998;46.604;13.610;2023-04-24T08:47:20;1.48;;;1.00;;
40286;SDS011;25998;46.604;13.610;2023-04-24T08:50:34;1.67;;;1.00;;
40286;SDS011;25998;46.604;13.610;2023-04-24T08:53:46;6.05;;;1.30;;
40286;SDS011;25998;46.604;13.610;2023-04-24T08:57:00;1.25;;;0.90;;
40286;SDS011;25998;46.604;13.610;2023-04-24T09:00:13;2.45;;;1.00;;
40286;SDS011;25998;46.604;13.610;2023-04-24T09:03:25;1.02;;;0.80;;
40286;SDS011;25998;46.604;13.610;2023-04-24T09:06:38;2.90;;;1.00;;
40286;SDS011;25998;46.604;13.610;2023-04-24T09:09:50;0.90;;;0.63;;
40286;SDS011;25998;46.604;13.610;2023-04-24T09:13:01;3.22;;;1.25;;
40286;SDS011;25998;46.604;13.610;2023-04-24T09:16:13;2.47;;;1.13;;
40286;SDS011;25998;46.604;13.610;2023-04-24T09:19:24;1.48;;;0.90;;
40286;SDS011;25998;46.604;13.610;2023-04-24T09:22:36;1.17;;;0.80;;
40286;SDS011;25998;46.604;13.610;2023-04-24T09:25:48;1.40;;;0.73;;
40286;SDS011;25998;46.604;13.610;2023-04-24T09:29:05;1.08;;;0.80;;
40286;SDS011;25998;46.604;13.610;2023-04-24T09:32:19;1.70;;;1.30;;
40286;SDS011;25998;46.604;13.610;2023-04-24T09:35:35;1.05;;;0.80;;
40286;SDS011;25998;46.604;13.610;2023-04-24T09:38:46;1.80;;;1.00;;
40286;SDS011;25998;46.604;13.610;2023-04-24T09:41:57;5.80;;;0.90;;
40286;SDS011;25998;46.604;13.610;2023-04-24T09:45:11;2.00;;;0.90;;
40286;SDS011;25998;46.604;13.610;2023-04-24T09:48:40;2.13;;;0.82;;
40286;SDS011;25998;46.604;13.610;2023-04-24T09:51:51;1.30;;;0.75;;
40286;SDS011;25998;46.604;13.610;2023-04-24T09:55:02;1.25;;;0.80;;
40286;SDS011;25998;46.604;13.610;2023-04-24T09:58:26;2.03;;;0.80;;
40286;SDS011;25998;46.604;13.610;2023-04-24T10:01:38;1.45;;;0.90;;
40286;SDS011;25998;46.604;13.610;2023-04-24T10:04:55;1.65;;;0.95;;
40286;SDS011;25998;46.604;13.610;2023-04-24T10:08:10;2.20;;;0.90;;
40286;SDS011;25998;46.604;13.610;2023-04-24T10:11:22;1.40;;;0.73;;
40286;SDS011;25998;46.604;13.610;2023-04-24T10:14:33;1.13;;;0.60;;
40286;SDS011;25998;46.604;13.610;2023-04-24T10:17:44;0.77;;;0.60;;
40286;SDS011;25998;46.604;13.610;2023-04-24T10:21:02;1.00;;;0.68;;
40286;SDS011;25998;46.604;13.610;2023-04-24T10:24:16;1.17;;;0.80;;
40286;SDS011;25998;46.604;13.610;2023-04-24T10:27:28;0.85;;;0.70;;
40286;SDS011;25998;46.604;13.610;2023-04-24T10:30:42;2.90;;;0.90;;
40286;SDS011;25998;46.604;13.610;2023-04-24T10:33:53;2.08;;;1.20;;
40286;SDS011;25998;46.604;13.610;2023-04-24T10:37:05;2.08;;;0.90;;
40286;SDS011;25998;46.604;13.610;2023-04-24T10:40:17;1.92;;;1.02;;
40286;SDS011;25998;46.604;13.610;2023-04-24T10:43:29;1.95;;;1.20;;
40286;SDS011;25998;46.604;13.610;2023-04-24T10:46:44;2.58;;;0.93;;
40286;SDS011;25998;46.604;13.610;2023-04-24T10:49:58;2.40;;;1.08;;
40286;SDS011;25998;46.604;13.610;2023-04-24T10:53:17;1.27;;;0.90;;
40286;SDS011;25998;46.604;13.610;2023-04-24T10:56:36;1.98;;;1.27;;
40286;SDS011;25998;46.604;13.610;2023-04-24T10:59:50;1.67;;;1.15;;
40286;SDS011;25998;46.604;13.610;2023-04-24T11:03:28;1.63;;;1.00;;
40286;SDS011;25998;46.604;13.610;2023-04-24T11:06:40;1.33;;;0.95;;
40286;SDS011;25998;46.604;13.610;2023-04-24T11:09:58;1.77;;;0.93;;
40286;SDS011;25998;46.604;13.610;2023-04-24T11:13:13;1.13;;;0.70;;
40286;SDS011;25998;46.604;13.610;2023-04-24T11:16:27;1.83;;;0.82;;
40286;SDS011;25998;46.604;13.610;2023-04-24T11:19:40;1.63;;;1.00;;
40286;SDS011;25998;46.604;13.610;2023-04-24T11:22:52;1.35;;;0.85;;
40286;SDS011;25998;46.604;13.610;2023-04-24T11:26:26;2.17;;;1.17;;
40286;SDS011;25998;46.604;13.610;2023-04-24T11:33:10;1.27;;;0.90;;
40286;SDS011;25998;46.604;13.610;2023-04-24T11:36:21;1.63;;;1.00;;
40286;SDS011;25998;46.604;13.610;2023-04-24T11:39:36;1.83;;;1.10;;
40286;SDS011;25998;46.604;13.610;2023-04-24T11:42:47;2.10;;;1.05;;
40286;SDS011;25998;46.604;13.610;2023-04-24T11:45:59;1.83;;;1.10;;
40286;SDS011;25998;46.604;13.610;2023-04-24T11:49:10;2.00;;;1.08;;
40286;SDS011;25998;46.604;13.610;2023-04-24T11:52:22;1.60;;;1.00;;
40286;SDS011;25998;46.604;13.610;2023-04-24T11:55:33;1.17;;;0.80;;
40286;SDS011;25998;46.604;13.610;2023-04-24T11:58:44;1.90;;;1.00;;
40286;SDS011;25998;46.604;13.610;2023-04-24T12:01:56;2.83;;;0.90;;
40286;SDS011;25998;46.604;13.610;2023-04-24T12:05:07;1.58;;;0.80;;
40286;SDS011;25998;46.604;13.610;2023-04-24T12:08:28;1.38;;;0.90;;
40286;SDS011;25998;46.604;13.610;2023-04-24T12:11:52;2.70;;;0.95;;
40286;SDS011;25998;46.604;13.610;2023-04-24T12:15:07;1.98;;;1.00;;
40286;SDS011;25998;46.604;13.610;2023-04-24T12:18:21;1.48;;;0.80;;
40286;SDS011;25998;46.604;13.610;2023-04-24T12:21:33;1.23;;;0.90;;
40286;SDS011;25998;46.604;13.610;2023-04-24T12:28:11;1.17;;;0.70;;
40286;SDS011;25998;46.604;13.610;2023-04-24T12:31:23;1.20;;;0.88;;
40286;SDS011;25998;46.604;13.610;2023-04-24T12:34:34;1.23;;;0.90;;
40286;SDS011;25998;46.604;13.610;2023-04-24T12:37:45;2.83;;;1.20;;
40286;SDS011;25998;46.604;13.610;2023-04-24T12:41:02;1.63;;;1.10;;
40286;SDS011;25998;46.604;13.610;2023-04-24T12:44:18;2.45;;;1.20;;
40286;SDS011;25998;46.604;13.610;2023-04-24T12:47:29;2.38;;;1.45;;
40286;SDS011;25998;46.604;13.610;2023-04-24T12:50:41;2.53;;;1.30;;
40286;SDS011;25998;46.604;13.610;2023-04-24T12:53:53;1.77;;;1.38;;
40286;SDS011;25998;46.604;13.610;2023-04-24T12:57:04;1.98;;;1.08;;
40286;SDS011;25998;46.604;13.610;2023-04-24T13:00:15;1.92;;;1.13;;
40286;SDS011;25998;46.604;13.610;2023-04-24T13:03:26;1.73;;;1.10;;
40286;SDS011;25998;46.604;13.610;2023-04-24T13:06:37;1.25;;;0.95;;
40286;SDS011;25998;46.604;13.610;2023-04-24T13:09:48;2.25;;;0.90;;
40286;SDS011;25998;46.604;13.610;2023-04-24T13:13:00;1.00;;;0.85;;
40286;SDS011;25998;46.604;13.610;2023-04-24T13:16:11;1.27;;;0.93;;
40286;SDS011;25998;46.604;13.610;2023-04-24T13:19:23;2.30;;;1.30;;
40286;SDS011;25998;46.604;13.610;2023-04-24T13:22:36;2.13;;;1.00;;
40286;SDS011;25998;46.604;13.610;2023-04-24T13:25:47;2.88;;;1.65;;
40286;SDS011;25998;46.604;13.610;2023-04-24T13:28:58;2.67;;;1.60;;
40286;SDS011;25998;46.604;13.610;2023-04-24T13:32:09;3.28;;;2.13;;
40286;SDS011;25998;46.604;13.610;2023-04-24T13:35:20;2.50;;;1.50;;
40286;SDS011;25998;46.604;13.610;2023-04-24T13:38:31;2.85;;;1.90;;
40286;SDS011;25998;46.604;13.610;2023-04-24T13:41:42;4.18;;;1.67;;
40286;SDS011;25998;46.604;13.610;2023-04-24T13:44:53;2.72;;;1.67;;
40286;SDS011;25998;46.604;13.610;2023-04-24T13:48:04;2.30;;;1.30;;
40286;SDS011;25998;46.604;13.610;2023-04-24T13:51:15;2.15;;;1.30;;
40286;SDS011;25998;46.604;13.610;2023-04-24T13:54:26;1.92;;;1.20;;
40286;SDS011;25998;46.604;13.610;2023-04-24T13:57:37;2.83;;;1.20;;
40286;SDS011;25998;46.604;13.610;2023-04-24T14:00:48;2.10;;;1.30;;
40286;SDS011;25998;46.604;13.610;2023-04-24T14:03:58;3.40;;;1.25;;
40286;SDS011;25998;46.604;13.610;2023-04-24T14:07:09;2.05;;;1.23;;
40286;SDS011;25998;46.604;13.610;2023-04-24T14:10:20;2.40;;;1.50;;
40286;SDS011;25998;46.604;13.610;2023-04-24T14:13:31;3.05;;;1.50;;
40286;SDS011;25998;46.604;13.610;2023-04-24T14:16:43;5.63;;;2.58;;
40286;SDS011;25998;46.604;13.610;2023-04-24T14:19:53;6.03;;;2.33;;
40286;SDS011;25998;46.604;13.610;2023-04-24T14:23:06;2.88;;;1.10;;
40286;SDS011;25998;46.604;13.610;2023-04-24T14:26:17;3.13;;;0.90;;
40286;SDS011;25998;46.604;13.610;2023-04-24T14:29:28;1.70;;;1.20;;
40286;SDS011;25998;46.604;13.610;2023-04-24T14:32:39;2.08;;;1.38;;
40286;SDS011;25998;46.604;13.610;2023-04-24T14:35:50;2.00;;;1.13;;
40286;SDS011;25998;46.604;13.610;2023-04-24T14:39:01;1.67;;;1.13;;
40286;SDS011;25998;46.604;13.610;2023-04-24T14:42:16;2.03;;;1.20;;
40286;SDS011;25998;46.604;13.610;2023-04-24T14:45:27;2.28;;;1.30;;
40286;SDS011;25998;46.604;13.610;2023-04-24T14:48:39;1.30;;;0.95;;
40286;SDS011;25998;46.604;13.610;2023-04-24T14:51:50;1.90;;;1.00;;
40286;SDS011;25998;46.604;13.610;2023-04-24T14:55:01;2.05;;;1.10;;
40286;SDS011;25998;46.604;13.610;2023-04-24T14:58:12;2.08;;;1.10;;
40286;SDS011;25998;46.604;13.610;2023-04-24T15:01:26;2.15;;;1.30;;
40286;SDS011;25998;46.604;13.610;2023-04-24T15:04:36;3.35;;;1.20;;
40286;SDS011;25998;46.604;13.610;2023-04-24T15:07:47;1.58;;;1.10;;
40286;SDS011;25998;46.604;13.610;2023-04-24T15:10:58;2.20;;;1.25;;
40286;SDS011;25998;46.604;13.610;2023-04-24T15:14:09;2.90;;;1.20;;
40286;SDS011;25998;46.604;13.610;2023-04-24T15:17:20;1.73;;;1.15;;
40286;SDS011;25998;46.604;13.610;2023-04-24T15:20:31;2.38;;;1.42;;
40286;SDS011;25998;46.604;13.610;2023-04-24T15:23:42;1.77;;;1.00;;
40286;SDS011;25998;46.604;13.610;2023-04-24T15:26:53;1.40;;;0.85;;
40286;SDS011;25998;46.604;13.610;2023-04-24T15:30:04;1.58;;;0.90;;
40286;SDS011;25998;46.604;13.610;2023-04-24T15:33:15;1.17;;;0.77;;
40286;SDS011;25998;46.604;13.610;2023-04-24T15:36:26;3.15;;;0.98;;
40286;SDS011;25998;46.604;13.610;2023-04-24T15:39:37;0.88;;;0.60;;
40286;SDS011;25998;46.604;13.610;2023-04-24T15:42:48;0.43;;;0.43;;
40286;SDS011;25998;46.604;13.610;2023-04-24T15:45:59;1.30;;;0.90;;
40286;SDS011;25998;46.604;13.610;2023-04-24T15:49:11;2.17;;;0.75;;
40286;SDS011;25998;46.604;13.610;2023-04-24T15:52:22;2.17;;;0.60;;
40286;SDS011;25998;46.604;13.610;2023-04-24T15:55:33;1.17;;;0.80;;
40286;SDS011;25998;46.604;13.610;2023-04-24T15:58:44;2.60;;;0.90;;
40286;SDS011;25998;46.604;13.610;2023-04-24T16:01:55;0.55;;;0.55;;
40286;SDS011;25998;46.604;13.610;2023-04-24T16:05:09;1.10;;;0.70;;
40286;SDS011;25998;46.604;13.610;2023-04-24T16:08:20;1.13;;;0.77;;
40286;SDS011;25998;46.604;13.610;2023-04-24T16:11:32;0.80;;;0.50;;
40286;SDS011;25998;46.604;13.610;2023-04-24T16:14:45;1.15;;;0.70;;
40286;SDS011;25998;46.604;13.610;2023-04-24T16:17:56;1.42;;;0.73;;
40286;SDS011;25998;46.604;13.610;2023-04-24T16:21:07;1.17;;;0.65;;
40286;SDS011;25998;46.604;13.610;2023-04-24T16:24:18;1.52;;;0.73;;
40286;SDS011;25998;46.604;13.610;2023-04-24T16:27:30;0.80;;;0.65;;
40286;SDS011;25998;46.604;13.610;2023-04-24T16:30:41;3.75;;;0.65;;
40286;SDS011;25998;46.604;13.610;2023-04-24T16:33:56;0.77;;;0.60;;
40286;SDS011;25998;46.604;13.610;2023-04-24T16:37:07;1.13;;;0.70;;
40286;SDS011;25998;46.604;13.610;2023-04-24T16:40:21;1.45;;;0.70;;
40286;SDS011;25998;46.604;13.610;2023-04-24T16:43:32;1.70;;;0.82;;
40286;SDS011;25998;46.604;13.610;2023-04-24T16:46:43;1.40;;;0.80;;
40286;SDS011;25998;46.604;13.610;2023-04-24T16:49:54;2.33;;;0.70;;
40286;SDS011;25998;46.604;13.610;2023-04-24T16:53:04;1.42;;;0.63;;
40286;SDS011;25998;46.604;13.610;2023-04-24T16:56:15;1.33;;;0.73;;
40286;SDS011;25998;46.604;13.610;2023-04-24T16:59:26;1.35;;;0.80;;
40286;SDS011;25998;46.604;13.610;2023-04-24T17:02:38;2.05;;;0.90;;
40286;SDS011;25998;46.604;13.610;2023-04-24T17:05:49;3.67;;;0.93;;
40286;SDS011;25998;46.604;13.610;2023-04-24T17:09:01;2.72;;;1.52;;
40286;SDS011;25998;46.604;13.610;2023-04-24T17:12:12;4.20;;;1.80;;
40286;SDS011;25998;46.604;13.610;2023-04-24T17:15:23;5.30;;;1.40;;
40286;SDS011;25998;46.604;13.610;2023-04-24T17:18:35;3.95;;;1.38;;
40286;SDS011;25998;46.604;13.610;2023-04-24T17:21:49;2.33;;;1.15;;
40286;SDS011;25998;46.604;13.610;2023-04-24T17:24:59;2.78;;;1.17;;
40286;SDS011;25998;46.604;13.610;2023-04-24T17:28:14;3.30;;;1.08;;
40286;SDS011;25998;46.604;13.610;2023-04-24T17:31:34;3.17;;;1.15;;
40286;SDS011;25998;46.604;13.610;2023-04-24T17:34:45;3.10;;;1.20;;
40286;SDS011;25998;46.604;13.610;2023-04-24T17:37:56;1.63;;;1.00;;
40286;SDS011;25998;46.604;13.610;2023-04-24T17:41:07;1.98;;;1.00;;
40286;SDS011;25998;46.604;13.610;2023-04-24T17:44:18;2.97;;;1.15;;
40286;SDS011;25998;46.604;13.610;2023-04-24T17:47:30;4.18;;;1.25;;
40286;SDS011;25998;46.604;13.610;2023-04-24T17:50:41;3.30;;;1.27;;
40286;SDS011;25998;46.604;13.610;2023-04-24T17:53:52;2.20;;;0.95;;
40286;SDS011;25998;46.604;13.610;2023-04-24T17:57:03;1.85;;;1.00;;
40286;SDS011;25998;46.604;13.610;2023-04-24T18:00:14;2.50;;;1.00;;
40286;SDS011;25998;46.604;13.610;2023-04-24T18:03:28;1.15;;;0.88;;
40286;SDS011;25998;46.604;13.610;2023-04-24T18:06:39;2.60;;;1.10;;
40286;SDS011;25998;46.604;13.610;2023-04-24T18:09:50;2.72;;;1.35;;
40286;SDS011;25998;46.604;13.610;2023-04-24T18:13:01;8.73;;;1.50;;
40286;SDS011;25998;46.604;13.610;2023-04-24T18:16:13;2.50;;;1.20;;
40286;SDS011;25998;46.604;13.610;2023-04-24T18:19:24;3.30;;;1.33;;
40286;SDS011;25998;46.604;13.610;2023-04-24T18:22:35;4.43;;;1.33;;
40286;SDS011;25998;46.604;13.610;2023-04-24T18:25:46;5.10;;;1.40;;
40286;SDS011;25998;46.604;13.610;2023-04-24T18:28:57;3.05;;;1.33;;
40286;SDS011;25998;46.604;13.610;2023-04-24T18:32:08;1.92;;;1.20;;
40286;SDS011;25998;46.604;13.610;2023-04-24T18:35:19;3.58;;;1.35;;
40286;SDS011;25998;46.604;13.610;2023-04-24T18:38:31;4.03;;;1.10;;
40286;SDS011;25998;46.604;13.610;2023-04-24T18:41:42;4.10;;;1.00;;
40286;SDS011;25998;46.604;13.610;2023-04-24T18:44:52;2.40;;;1.27;;
40286;SDS011;25998;46.604;13.610;2023-04-24T18:48:05;3.00;;;1.05;;
40286;SDS011;25998;46.604;13.610;2023-04-24T18:51:16;3.53;;;1.30;;
40286;SDS011;25998;46.604;13.610;2023-04-24T18:54:26;2.05;;;1.10;;
40286;SDS011;25998;46.604;13.610;2023-04-24T18:57:37;2.53;;;1.15;;
40286;SDS011;25998;46.604;13.610;2023-04-24T19:00:48;1.60;;;0.90;;
40286;SDS011;25998;46.604;13.610;2023-04-24T19:04:00;1.65;;;1.05;;